KBOS/BOS METAR and TAF weather

Enter ICAO airport designator
Station Type Date Time Source
KBOS METAR 2021/09/25 11:54 UTC NOAA

KBOS 251154Z 32007KT 10SM BKN055 BKN065 19/12 A3005 RMK AO2 SLP175 T01890117 10206 20183 51002


Station Type Date Time Source
KBOS Decoded METAR 2021/09/25 11:54 UTC NOAA

BOSTON LOGAN INTERNATIONAL, MA, United States (KBOS) 42-22N 071-01W 54M
Sep 25, 2021 - 07:54 AM EDT / 2021.09.25 1154 UTC
Wind: from the NW (320 degrees) at 8 MPH (7 KT):0
Visibility: 10 mile(s):0
Sky conditions: mostly cloudy
Temperature: 66.0 F (18.9 C)
Dew Point: 53.1 F (11.7 C)
Relative Humidity: 62%
Pressure (altimeter): 30.05 in. Hg (1017 hPa)
Pressure tendency: 0.01 inches (0.2 hPa) higher than three hours ago
ob: KBOS 251154Z 32007KT 10SM BKN055 BKN065 19/12 A3005 RMK AO2 SLP175 T01890117 10206 20183 51002
cycle: 12

Station Type Date Time Source
KBOS TAF 2021/09/25 12:24 UTC NOAA

TAF KBOS 251121Z 2512/2618 34006KT P6SM SCT050
FM251800 10006KT P6SM SCT080
FM260200 09004KT P6SM VCSH OVC015
FM260700 05004KT 1SM -SHRA BR OVC008
FM261100 32007KT 4SM BR VCSH OVC020
FM261300 31008KT P6SM BKN050

Example: see airport list